createdAt,value
2019-05-23T00:02:42.468Z,169.4
2019-05-23T00:04:42.012Z,114.3
2019-05-23T00:06:42.442Z,110.8
2019-05-23T04:12:52.176Z,29.3
2019-05-23T04:14:35.700Z,39.7
2019-05-23T04:27:10.202Z,25.7
2019-05-23T04:28:34.799Z,31.9
2019-05-23T04:36:45.032Z,22.1
2019-05-23T04:42:37.480Z,18.0
2019-05-23T04:48:14.343Z,11.7
2019-05-23T04:48:34.298Z,12.7
2019-05-23T04:52:41.665Z,13.4
2019-05-23T04:57:09.693Z,19.8
2019-05-23T05:10:57.539Z,14.2
2019-05-23T05:12:09.934Z,14.8
2019-05-23T05:14:26.422Z,15.4
2019-05-23T05:18:34.934Z,26.3
2019-05-23T05:20:35.241Z,28.6
2019-05-23T05:22:35.935Z,52.1
2019-05-23T05:24:39.883Z,35.8
2019-05-23T05:26:36.018Z,42.5
2019-05-23T05:28:35.674Z,39.3
2019-05-23T05:30:35.138Z,58.0
2019-05-23T05:32:44.505Z,37.1
2019-05-23T05:34:35.776Z,90.3
2019-05-23T05:36:33.762Z,54.4
2019-05-23T05:38:35.365Z,99.4
2019-05-23T05:40:35.854Z,89.5
2019-05-23T05:42:35.388Z,101.9
2019-05-23T05:44:35.846Z,43.9
2019-05-23T05:46:35.495Z,112.7
2019-05-23T05:48:36.340Z,69.2
2019-05-23T05:50:35.912Z,65.8
2019-05-23T05:52:35.600Z,98.3
2019-05-23T05:54:35.227Z,72.3
2019-05-23T05:56:35.784Z,101.9
2019-05-23T05:58:35.306Z,61.2
2019-05-23T06:00:36.014Z,42.0
2019-05-23T06:02:35.567Z,34.9
2019-05-23T06:04:36.593Z,34.5
2019-05-23T06:06:34.635Z,30.7
2019-05-23T06:08:36.057Z,41.6
2019-05-23T06:10:35.624Z,36.9
2019-05-23T06:12:35.140Z,29.8
2019-05-23T06:14:35.789Z,69.9
2019-05-23T06:16:35.383Z,59.2
2019-05-23T06:18:36.080Z,36.8
2019-05-23T06:20:35.567Z,34.6
2019-05-23T06:22:36.183Z,36.8
2019-05-23T06:24:43.819Z,34.8
2019-05-23T06:26:36.329Z,37.3
2019-05-23T06:28:35.884Z,33.7
2019-05-23T06:30:35.327Z,29.5
2019-05-23T06:32:35.782Z,34.3
2019-05-23T06:34:35.333Z,35.8
2019-05-23T06:36:35.898Z,32.6
2019-05-23T06:38:35.583Z,35.5
2019-05-23T06:40:36.102Z,35.0
2019-05-23T06:42:35.814Z,30.2
2019-05-23T06:44:35.252Z,29.9
2019-05-23T06:46:35.837Z,28.2
2019-05-23T06:48:35.323Z,26.1
2019-05-23T06:50:36.307Z,25.8
2019-05-23T06:52:34.428Z,28.2
2019-05-23T06:54:36.038Z,28.2
2019-05-23T06:56:35.594Z,32.7
2019-05-23T06:58:35.352Z,26.4
2019-05-23T07:00:35.774Z,29.3
2019-05-23T07:02:35.315Z,29.0
2019-05-23T07:04:35.778Z,23.2
2019-05-23T07:06:35.237Z,26.0
2019-05-23T07:08:35.806Z,26.5
2019-05-23T07:10:35.385Z,25.2
2019-05-23T07:12:35.960Z,26.5
2019-05-23T07:14:35.449Z,26.6
2019-05-23T07:16:35.896Z,29.6
2019-05-23T07:18:35.561Z,27.0
2019-05-23T07:20:35.959Z,26.3
2019-05-23T07:22:35.593Z,27.8
2019-05-23T07:24:36.109Z,26.0
2019-05-23T07:26:35.700Z,29.2
2019-05-23T07:28:35.249Z,28.4
2019-05-23T07:30:35.748Z,32.5
2019-05-23T07:32:35.559Z,27.8
2019-05-23T07:34:36.138Z,26.8
2019-05-23T07:36:36.153Z,26.6
2019-05-23T07:38:34.350Z,29.5
2019-05-23T07:40:34.322Z,26.1
2019-05-23T07:42:35.832Z,23.5
2019-05-23T07:44:47.746Z,23.3
2019-05-23T07:46:35.863Z,25.2
2019-05-23T07:48:35.408Z,24.4
2019-05-23T07:50:36.005Z,27.2
2019-05-23T07:52:35.633Z,21.2
2019-05-23T07:54:36.209Z,22.7
2019-05-23T07:56:35.675Z,21.9
2019-05-23T07:58:35.197Z,22.6
2019-05-23T08:02:36.023Z,22.9
2019-05-23T08:04:35.644Z,22.9
2019-05-23T08:06:35.170Z,20.4
2019-05-23T08:08:35.778Z,20.4
2019-05-23T08:10:35.319Z,19.6
2019-05-23T08:12:35.836Z,18.9
2019-05-23T08:14:35.529Z,19.5
2019-05-23T08:16:36.116Z,20.4
2019-05-23T08:18:35.814Z,19.9
2019-05-23T08:20:35.321Z,21.3
2019-05-23T08:22:36.033Z,18.9
2019-05-23T08:24:35.601Z,20.1
2019-05-23T08:26:36.314Z,18.3
2019-05-23T08:28:35.805Z,18.5
2019-05-23T08:30:35.320Z,20.2
2019-05-23T08:32:35.741Z,18.8
2019-05-23T08:34:41.116Z,18.9
2019-05-23T08:36:35.291Z,20.8
2019-05-23T08:38:35.928Z,21.1
2019-05-23T08:40:35.379Z,20.4
2019-05-23T08:42:35.914Z,19.1
2019-05-23T08:44:35.420Z,19.0
2019-05-23T08:46:36.041Z,20.2
2019-05-23T08:48:35.576Z,17.6
2019-05-23T08:50:36.212Z,17.9
2019-05-23T08:52:35.825Z,16.4
2019-05-23T08:54:35.502Z,16.8
2019-05-23T08:56:36.089Z,16.1
2019-05-23T08:58:35.669Z,15.1
2019-05-23T09:00:35.341Z,14.7
2019-05-23T09:02:36.076Z,16.5
2019-05-23T09:04:35.608Z,13.7
2019-05-23T09:06:36.303Z,14.5
2019-05-23T09:08:35.897Z,14.1
2019-05-23T09:10:35.475Z,12.1
2019-05-23T09:12:35.992Z,13.9
2019-05-23T09:14:35.503Z,13.5
2019-05-23T09:16:36.048Z,16.1
2019-05-23T09:18:35.759Z,15.4
2019-05-23T09:20:35.331Z,16.1
2019-05-23T09:22:36.014Z,14.5
2019-05-23T09:24:35.500Z,13.9
2019-05-23T09:26:36.226Z,15.9
2019-05-23T09:28:35.840Z,13.0
2019-05-23T09:30:35.405Z,13.8
2019-05-23T09:32:35.935Z,15.0
2019-05-23T09:34:35.641Z,11.5
2019-05-23T09:36:35.168Z,13.5
2019-05-23T09:38:35.740Z,11.3
2019-05-23T09:52:39.172Z,13.4
2019-05-23T09:54:35.718Z,12.5
2019-05-23T09:56:35.342Z,13.8
2019-05-23T09:58:35.966Z,15.6
2019-05-23T10:00:35.577Z,15.0
2019-05-23T10:02:36.170Z,15.1
2019-05-23T10:04:35.770Z,13.5
2019-05-23T10:06:35.503Z,15.5
2019-05-23T10:08:36.104Z,16.9
2019-05-23T10:10:35.850Z,17.2
2019-05-23T10:12:35.259Z,17.1
2019-05-23T10:14:35.955Z,16.8
2019-05-23T10:16:35.267Z,14.1
2019-05-23T10:18:35.788Z,15.3
2019-05-23T10:20:35.220Z,14.2
2019-05-23T10:22:35.742Z,14.9
2019-05-23T10:24:35.393Z,14.3
2019-05-23T10:26:36.036Z,14.9
2019-05-23T10:28:35.669Z,13.3
2019-05-23T10:30:35.235Z,11.7
2019-05-23T10:32:35.752Z,14.9
2019-05-23T10:34:35.380Z,13.5
2019-05-23T10:36:36.141Z,16.9
2019-05-23T10:38:35.716Z,15.6
2019-05-23T10:40:35.842Z,21.8
2019-05-23T10:42:35.383Z,13.0
2019-05-23T10:44:35.903Z,13.1
2019-05-23T10:46:35.402Z,13.7
2019-05-23T10:48:35.891Z,15.7
2019-05-23T10:50:43.992Z,16.6
2019-05-23T10:52:35.814Z,17.6
2019-05-23T10:54:35.362Z,15.6
2019-05-23T10:56:35.725Z,13.9
2019-05-23T10:58:35.363Z,14.4
2019-05-23T11:00:35.633Z,17.7
2019-05-23T11:02:36.105Z,14.3
2019-05-23T11:04:35.553Z,16.9
2019-05-23T11:06:36.162Z,16.6
2019-05-23T11:08:35.675Z,12.9
2019-05-23T11:10:35.274Z,14.8
2019-05-23T11:12:35.789Z,13.8
2019-05-23T11:14:35.338Z,14.5
2019-05-23T11:16:36.025Z,13.7
2019-05-23T11:18:35.880Z,15.3
2019-05-23T11:20:36.076Z,12.7
2019-05-23T11:22:35.980Z,15.5
2019-05-23T11:24:35.746Z,14.3
2019-05-23T11:26:35.450Z,13.9
2019-05-23T11:28:36.000Z,14.0
2019-05-23T11:30:35.812Z,13.2
2019-05-23T11:32:35.179Z,14.0
2019-05-23T11:34:35.744Z,15.3
2019-05-23T11:36:36.391Z,16.2
2019-05-23T11:38:35.689Z,16.5
2019-05-23T11:40:35.122Z,17.3
2019-05-23T11:42:35.903Z,16.5
2019-05-23T11:44:35.521Z,14.8
2019-05-23T11:46:35.990Z,16.3
2019-05-23T11:48:35.623Z,17.6
2019-05-23T11:50:35.284Z,16.0
2019-05-23T11:52:35.595Z,17.2
2019-05-23T11:54:35.186Z,20.2
2019-05-23T11:56:35.560Z,16.1
2019-05-23T11:58:36.307Z,16.3
2019-05-23T12:02:36.018Z,18.4
2019-05-23T12:04:35.504Z,16.6
2019-05-23T12:06:53.400Z,18.3
2019-05-23T12:08:35.517Z,18.9
2019-05-23T12:10:35.180Z,16.2
2019-05-23T12:12:36.021Z,16.9
2019-05-23T12:14:35.845Z,17.1
2019-05-23T12:16:35.286Z,13.9
2019-05-23T12:18:35.846Z,13.3
2019-05-23T12:20:35.364Z,16.7
2019-05-23T12:22:35.818Z,13.8
2019-05-23T12:24:35.977Z,13.3
2019-05-23T12:26:35.669Z,12.3
2019-05-23T12:28:35.251Z,13.4
2019-05-23T12:30:35.762Z,13.1
2019-05-23T12:32:35.238Z,12.3
2019-05-23T12:34:35.826Z,12.2
2019-05-23T12:36:35.409Z,12.8
2019-05-23T12:38:35.996Z,11.6
2019-05-23T12:40:35.805Z,9.9
2019-05-23T12:42:35.772Z,11.1
2019-05-23T12:44:35.341Z,10.8
2019-05-23T12:46:36.046Z,9.8
2019-05-23T12:48:35.587Z,11.7
2019-05-23T12:50:35.368Z,12.3
2019-05-23T12:52:35.983Z,12.1
2019-05-23T12:54:35.586Z,11.5
2019-05-23T12:56:36.039Z,11.3
2019-05-23T12:58:35.689Z,12.9
2019-05-23T13:00:35.491Z,11.4
2019-05-23T13:02:36.107Z,9.6
2019-05-23T13:04:35.567Z,16.5
2019-05-23T13:06:35.183Z,12.1
2019-05-23T13:08:35.748Z,14.2
2019-05-23T13:10:35.248Z,13.8
2019-05-23T13:12:35.765Z,13.5
2019-05-23T13:14:35.498Z,11.8
2019-05-23T13:16:36.141Z,11.4
2019-05-23T13:18:35.799Z,11.6
2019-05-23T13:20:35.372Z,12.8
2019-05-23T13:22:36.025Z,12.0
2019-05-23T13:24:51.107Z,11.2
2019-05-23T13:26:35.979Z,11.2
2019-05-23T13:28:35.610Z,10.8
2019-05-23T13:30:35.305Z,12.0
2019-05-23T13:32:35.941Z,12.7
2019-05-23T13:34:35.815Z,14.7
2019-05-23T13:36:35.615Z,15.7
2019-05-23T13:38:33.922Z,12.4
2019-05-23T13:40:35.639Z,13.9
2019-05-23T13:42:35.213Z,13.6
2019-05-23T13:44:36.351Z,16.5
2019-05-23T13:46:36.551Z,14.7
2019-05-23T13:48:34.637Z,19.0
2019-05-23T13:50:36.002Z,17.1
2019-05-23T13:52:35.508Z,16.7
2019-05-23T13:54:36.775Z,15.9
2019-05-23T13:56:35.698Z,16.1
2019-05-23T13:58:35.960Z,13.8
2019-05-23T14:02:35.635Z,16.9
2019-05-23T14:04:35.259Z,15.7
2019-05-23T14:06:35.800Z,13.7
2019-05-23T14:08:35.280Z,15.5
2019-05-23T14:10:35.835Z,14.3
2019-05-23T14:12:35.377Z,14.0
2019-05-23T14:14:35.948Z,13.9
2019-05-23T14:16:35.530Z,14.0
2019-05-23T14:18:36.314Z,13.0
2019-05-23T14:20:35.887Z,11.9
2019-05-23T14:22:35.430Z,11.8
2019-05-23T14:24:37.757Z,10.3
2019-05-23T14:26:35.677Z,8.9
2019-05-23T14:28:35.177Z,7.8
2019-05-23T14:30:35.803Z,8.8
2019-05-23T14:32:35.213Z,7.5
2019-05-23T14:34:36.135Z,6.7
2019-05-23T14:36:35.661Z,6.8
2019-05-23T14:38:35.287Z,6.3
2019-05-23T14:40:35.718Z,10.0
2019-05-23T14:42:35.316Z,8.1
2019-05-23T14:44:35.887Z,7.5
2019-05-23T14:46:35.518Z,9.4
2019-05-23T14:48:36.534Z,7.8
2019-05-23T14:50:36.177Z,7.8
2019-05-23T14:52:35.636Z,8.8
2019-05-23T14:54:36.240Z,7.1
2019-05-23T14:56:35.750Z,6.9
2019-05-23T14:58:35.264Z,6.7
2019-05-23T15:00:35.799Z,9.8
2019-05-23T15:02:35.365Z,7.1
2019-05-23T15:04:35.907Z,8.9
2019-05-23T15:06:35.479Z,7.5
2019-05-23T15:08:50.115Z,7.1
2019-05-23T15:10:35.573Z,6.7
2019-05-23T15:12:36.197Z,6.1
2019-05-23T15:14:35.802Z,6.6
2019-05-23T15:16:35.366Z,5.8
2019-05-23T15:18:36.055Z,5.9
2019-05-23T15:20:35.753Z,6.8
2019-05-23T15:22:35.182Z,6.1
2019-05-23T15:24:35.665Z,6.6
2019-05-23T15:26:35.368Z,5.9
2019-05-23T15:28:35.848Z,5.9
2019-05-23T15:30:35.541Z,5.5
2019-05-23T15:32:35.928Z,8.9
2019-05-23T15:34:35.797Z,8.0
2019-05-23T15:36:35.239Z,6.8
2019-05-23T15:38:35.805Z,8.2
2019-05-23T15:40:35.196Z,7.4
2019-05-23T15:42:35.621Z,7.0
2019-05-23T15:44:36.092Z,7.9
2019-05-23T15:46:35.715Z,7.3
2019-05-23T15:48:35.164Z,7.9
2019-05-23T15:50:36.049Z,6.9
2019-05-23T15:52:35.485Z,6.8
2019-05-23T15:54:36.099Z,6.8
2019-05-23T15:56:35.537Z,5.4
2019-05-23T15:58:36.188Z,6.3
2019-05-23T16:02:35.976Z,6.4
2019-05-23T16:04:35.451Z,8.6
2019-05-23T16:06:36.599Z,3.9
2019-05-23T16:08:35.131Z,5.7
2019-05-23T16:10:35.782Z,4.0
2019-05-23T16:12:35.354Z,5.1
2019-05-23T16:14:35.967Z,4.2
2019-05-23T16:16:35.521Z,3.9
2019-05-23T16:18:36.863Z,4.0
2019-05-23T16:20:35.253Z,4.0
2019-05-23T16:22:35.965Z,3.9
2019-05-23T16:24:35.514Z,5.0
2019-05-23T16:26:36.119Z,5.7
2019-05-23T16:28:35.542Z,3.9
2019-05-23T16:30:36.135Z,4.6
2019-05-23T16:32:35.608Z,6.1
2019-05-23T16:34:36.141Z,4.5
2019-05-23T16:36:35.616Z,3.4
2019-05-23T16:38:36.255Z,6.3
2019-05-23T16:40:35.713Z,5.2
2019-05-23T16:42:35.192Z,5.0
2019-05-23T16:44:35.691Z,7.1
2019-05-23T16:46:35.165Z,4.5
2019-05-23T16:48:35.669Z,5.5
2019-05-23T16:50:36.057Z,5.0
2019-05-23T16:52:35.435Z,4.3
2019-05-23T16:54:35.965Z,4.1
2019-05-23T16:56:35.477Z,4.3
2019-05-23T16:58:36.121Z,4.0
2019-05-23T17:00:35.551Z,4.8
2019-05-23T17:02:35.136Z,6.2
2019-05-23T17:04:35.695Z,4.7
2019-05-23T17:06:34.166Z,7.2
2019-05-23T17:08:34.044Z,8.7
2019-05-23T17:10:35.435Z,4.0
2019-05-23T17:12:35.963Z,4.7
2019-05-23T17:14:35.488Z,6.1
2019-05-23T17:16:36.105Z,5.2
2019-05-23T17:18:36.014Z,7.8
2019-05-23T17:20:35.569Z,6.5
2019-05-23T17:22:36.101Z,8.2
2019-05-23T17:24:39.194Z,8.1
2019-05-23T17:26:35.884Z,8.2
2019-05-23T17:28:35.530Z,9.3
2019-05-23T17:30:36.499Z,6.7
2019-05-23T17:32:35.929Z,7.8
2019-05-23T17:34:35.711Z,7.0
2019-05-23T17:36:35.164Z,7.9
2019-05-23T17:38:35.632Z,8.3
2019-05-23T17:40:35.221Z,10.0
2019-05-23T17:42:35.803Z,10.8
2019-05-23T17:44:35.522Z,9.9
2019-05-23T17:46:36.264Z,9.8
2019-05-23T17:48:35.769Z,9.7
2019-05-23T17:50:35.370Z,11.4
2019-05-23T17:52:35.850Z,12.8
2019-05-23T17:54:35.325Z,12.8
2019-05-23T17:56:36.249Z,13.2
2019-05-23T17:58:35.851Z,13.0
2019-05-23T18:00:35.250Z,14.6
2019-05-23T18:02:35.668Z,14.0
2019-05-23T18:04:36.011Z,14.2
2019-05-23T18:06:35.550Z,14.1
2019-05-23T18:08:36.014Z,13.7
2019-05-23T18:10:44.365Z,14.9
2019-05-23T18:12:35.924Z,13.9
2019-05-23T18:14:35.501Z,15.4
2019-05-23T18:16:35.962Z,15.2
2019-05-23T18:18:35.651Z,15.3
2019-05-23T18:20:36.079Z,14.1
2019-05-23T18:22:35.842Z,13.3
2019-05-23T18:24:35.288Z,14.6
2019-05-23T18:26:35.823Z,16.3
2019-05-23T18:28:35.271Z,15.9
2019-05-23T18:30:35.927Z,16.1
2019-05-23T18:32:35.439Z,17.1
2019-05-23T18:34:36.005Z,15.8
2019-05-23T18:36:35.454Z,17.4
2019-05-23T18:38:36.087Z,19.9
2019-05-23T18:40:35.655Z,19.9
2019-05-23T18:42:35.155Z,21.1
2019-05-23T18:44:35.582Z,20.3
2019-05-23T18:46:37.534Z,20.8
2019-05-23T18:48:35.506Z,19.9
2019-05-23T18:50:36.149Z,20.3
2019-05-23T18:52:35.437Z,22.4
2019-05-23T18:54:36.218Z,20.2
2019-05-23T18:56:35.665Z,22.4
2019-05-23T18:58:35.246Z,19.0
2019-05-23T19:00:35.769Z,21.3
2019-05-23T19:02:35.239Z,26.3
2019-05-23T19:04:35.670Z,23.1
2019-05-23T19:06:36.074Z,27.3
2019-05-23T19:08:35.607Z,18.0
2019-05-23T19:10:36.116Z,25.6
2019-05-23T19:12:35.539Z,23.2
2019-05-23T19:14:36.155Z,24.1
2019-05-23T19:16:35.687Z,23.3
2019-05-23T19:18:35.332Z,19.6
2019-05-23T19:20:35.601Z,26.7
2019-05-23T19:22:36.019Z,21.5
2019-05-23T19:24:35.365Z,22.7
2019-05-23T19:26:35.982Z,25.4
2019-05-23T19:28:35.604Z,20.6
2019-05-23T19:30:35.275Z,20.7
2019-05-23T19:32:35.654Z,18.2
2019-05-23T19:34:35.150Z,16.1
2019-05-23T19:36:35.800Z,17.7
2019-05-23T19:38:35.557Z,19.0
2019-05-23T19:40:36.158Z,19.2
2019-05-23T19:42:35.991Z,20.6
2019-05-23T19:44:35.657Z,19.3
2019-05-23T19:46:35.356Z,18.5
2019-05-23T19:48:35.893Z,21.4
2019-05-23T19:50:35.459Z,19.9
2019-05-23T19:52:35.740Z,21.0
2019-05-23T19:54:35.335Z,19.7
2019-05-23T19:56:35.813Z,19.5
2019-05-23T19:58:35.381Z,19.8
2019-05-23T20:00:35.916Z,19.7
2019-05-23T20:02:35.190Z,21.9
2019-05-23T20:04:43.677Z,21.6
2019-05-23T20:06:48.678Z,17.4
2019-05-23T20:08:42.080Z,19.5
2019-05-23T20:10:44.490Z,24.1
2019-05-23T20:12:43.993Z,18.5
2019-05-23T20:14:44.604Z,19.3
2019-05-23T20:16:44.248Z,24.8
2019-05-23T20:18:43.888Z,23.3
2019-05-23T20:20:44.405Z,19.9
2019-05-23T20:22:44.005Z,20.3
2019-05-23T20:24:44.615Z,22.6
2019-05-23T20:26:44.573Z,18.9
2019-05-23T20:28:44.199Z,23.0
2019-05-23T20:30:44.547Z,17.2
2019-05-23T20:32:44.183Z,21.7
2019-05-23T20:34:44.799Z,19.7
2019-05-23T20:36:44.789Z,20.1
2019-05-23T20:38:43.011Z,20.5
2019-05-23T20:40:42.834Z,21.2
2019-05-23T20:42:44.398Z,20.8
2019-05-23T20:44:44.169Z,23.5
2019-05-23T20:46:43.710Z,21.7
2019-05-23T20:48:44.480Z,24.9
2019-05-23T20:50:43.920Z,23.8
2019-05-23T20:52:44.386Z,22.4
2019-05-23T20:54:44.078Z,22.0
2019-05-23T20:56:44.545Z,23.1
2019-05-23T20:58:44.090Z,21.7
2019-05-23T21:00:44.491Z,23.2
2019-05-23T21:02:43.881Z,21.8
2019-05-23T21:04:44.569Z,21.5
2019-05-23T21:06:44.180Z,19.5
2019-05-23T21:08:44.655Z,28.6
2019-05-23T21:10:44.192Z,24.8
2019-05-23T21:12:43.690Z,24.8
2019-05-23T21:14:44.241Z,22.6
2019-05-23T21:16:43.652Z,22.7
2019-05-23T21:18:44.187Z,22.8
2019-05-23T21:20:43.689Z,26.7
2019-05-23T21:22:44.345Z,27.0
2019-05-23T21:24:43.920Z,22.8
2019-05-23T21:26:44.302Z,27.0
2019-05-23T21:28:43.876Z,24.9
2019-05-23T21:30:44.381Z,29.3
2019-05-23T21:32:43.929Z,24.9
2019-05-23T21:34:44.377Z,29.3
2019-05-23T21:36:43.878Z,23.1
2019-05-23T21:38:44.401Z,29.9
2019-05-23T21:40:43.750Z,23.6
2019-05-23T21:42:47.547Z,32.2
2019-05-23T21:44:43.556Z,28.5
2019-05-23T21:54:36.524Z,31.9
2019-05-23T21:56:36.037Z,26.9
2019-05-23T21:58:36.543Z,21.3
2019-05-23T22:00:38.528Z,32.5
2019-05-23T22:02:34.537Z,31.8
2019-05-23T22:04:43.898Z,36.3
2019-05-23T22:06:47.381Z,33.7
2019-05-23T22:08:43.999Z,27.4
2019-05-23T22:10:43.691Z,23.1
2019-05-23T22:12:44.298Z,26.3
2019-05-23T22:14:43.821Z,25.6
2019-05-23T22:16:44.285Z,30.6
2019-05-23T22:18:44.039Z,26.9
2019-05-23T22:20:43.732Z,39.6
2019-05-23T22:22:44.410Z,35.2
2019-05-23T22:26:43.964Z,32.3
2019-05-23T22:28:43.381Z,30.0
2019-05-23T22:30:43.936Z,39.1
2019-05-23T22:32:43.835Z,29.0
2019-05-23T22:34:44.310Z,28.3
2019-05-23T22:36:43.649Z,29.2
2019-05-23T22:38:44.251Z,34.7
2019-05-23T22:40:43.850Z,33.0
2019-05-23T22:42:44.277Z,30.1
2019-05-23T22:44:43.799Z,28.5
2019-05-23T22:46:44.288Z,45.4
2019-05-23T22:48:43.885Z,35.1
2019-05-23T22:50:43.324Z,30.3
2019-05-23T22:52:43.930Z,34.0
2019-05-23T22:54:43.601Z,29.4
2019-05-23T22:56:44.093Z,24.4
2019-05-23T22:58:43.804Z,28.6
2019-05-23T23:00:44.259Z,41.6
2019-05-23T23:02:45.993Z,39.3
2019-05-23T23:04:42.361Z,39.2
2019-05-23T23:06:43.723Z,39.3
2019-05-23T23:08:44.271Z,47.3
2019-05-23T23:10:43.823Z,45.3
2019-05-23T23:12:44.263Z,46.8
2019-05-23T23:14:43.759Z,47.4
2019-05-23T23:16:44.230Z,41.3
2019-05-23T23:18:43.820Z,39.2
2019-05-23T23:20:45.754Z,42.5
2019-05-23T23:22:43.757Z,39.0
2019-05-23T23:24:44.226Z,44.1
2019-05-23T23:26:43.669Z,34.4
2019-05-23T23:28:44.133Z,35.0
2019-05-23T23:30:43.578Z,32.7
2019-05-23T23:32:44.128Z,42.5
2019-05-23T23:34:44.146Z,42.6
2019-05-23T23:36:42.064Z,51.0
2019-05-23T23:38:42.043Z,32.7
2019-05-23T23:40:43.691Z,34.5
2019-05-23T23:42:44.248Z,29.6
2019-05-23T23:44:43.708Z,32.4
2019-05-23T23:46:44.444Z,32.9
2019-05-23T23:48:43.940Z,31.7
2019-05-23T23:50:43.655Z,38.7
2019-05-23T23:52:44.183Z,37.2
2019-05-23T23:54:43.997Z,31.5
2019-05-23T23:56:43.417Z,36.8
2019-05-23T23:58:44.009Z,29.4
